createdAt,value
2017-11-20T00:00:22.015Z,83.97
2017-11-20T00:01:22.007Z,84.06
2017-11-20T00:02:43.007Z,83.59
2017-11-20T00:03:21.992Z,83.59
2017-11-20T00:04:21.989Z,82.92
2017-11-20T00:05:21.984Z,82.92
2017-11-20T00:06:21.975Z,83.11
2017-11-20T00:07:21.967Z,82.54
2017-11-20T00:08:42.967Z,82.26
2017-11-20T00:09:21.956Z,81.97
2017-11-20T00:10:21.950Z,82.07
2017-11-20T00:11:21.946Z,82.16
2017-11-20T00:12:21.940Z,82.07
2017-11-20T00:13:21.933Z,82.26
2017-11-20T00:14:42.929Z,81.97
2017-11-20T00:15:21.918Z,81.49
2017-11-20T00:16:21.913Z,81.12
2017-11-20T00:17:21.906Z,81.49
2017-11-20T00:18:21.978Z,81.40
2017-11-20T00:19:21.893Z,81.49
2017-11-20T00:20:42.892Z,81.49
2017-11-20T00:21:21.879Z,81.68
2017-11-20T00:22:21.876Z,81.12
2017-11-20T00:23:21.866Z,80.93
2017-11-20T00:24:21.863Z,81.21
2017-11-20T00:25:21.855Z,80.93
2017-11-20T00:26:42.853Z,81.49
2017-11-20T00:27:21.840Z,81.40
2017-11-20T00:28:21.834Z,81.21
2017-11-20T00:29:21.829Z,80.74
2017-11-20T00:30:21.824Z,81.02
2017-11-20T00:31:21.815Z,80.45
2017-11-20T00:32:42.819Z,80.16
2017-11-20T00:33:21.816Z,80.93
2017-11-20T00:34:21.798Z,80.26
2017-11-20T00:35:21.790Z,80.16
2017-11-20T00:36:21.784Z,80.45
2017-11-20T00:37:21.778Z,80.74
2017-11-20T00:38:42.777Z,80.83
2017-11-20T00:39:21.766Z,80.64
2017-11-20T00:40:21.759Z,80.55
2017-11-20T00:41:21.754Z,80.93
2017-11-20T00:42:21.752Z,81.30
2017-11-20T00:43:21.741Z,80.74
2017-11-20T00:44:42.739Z,80.45
2017-11-20T00:45:21.727Z,80.64
2017-11-20T00:46:21.722Z,79.79
2017-11-20T00:47:21.713Z,79.88
2017-11-20T00:48:21.709Z,80.07
2017-11-20T00:49:22.361Z,80.64
2017-11-20T00:50:42.703Z,80.35
2017-11-20T00:51:21.689Z,80.64
2017-11-20T00:52:21.685Z,79.60
2017-11-20T00:53:21.680Z,80.26
2017-11-20T00:54:21.680Z,80.64
2017-11-20T00:55:21.667Z,80.55
2017-11-20T00:56:42.665Z,80.74
2017-11-20T00:57:21.653Z,80.74
2017-11-20T00:58:21.647Z,80.64
2017-11-20T00:59:21.651Z,80.35
2017-11-20T01:00:21.638Z,79.69
2017-11-20T01:01:21.636Z,79.97
2017-11-20T01:02:42.629Z,79.60
2017-11-20T01:03:21.615Z,80.07
2017-11-20T01:04:21.612Z,80.35
2017-11-20T01:05:21.604Z,79.03
2017-11-20T01:06:21.600Z,79.03
2017-11-20T01:07:21.593Z,79.22
2017-11-20T01:08:42.592Z,79.69
2017-11-20T01:09:21.579Z,79.79
2017-11-20T01:10:21.574Z,79.60
2017-11-20T01:11:21.568Z,79.50
2017-11-20T01:12:21.560Z,79.88
2017-11-20T01:13:21.555Z,80.26
2017-11-20T01:14:42.577Z,80.35
2017-11-20T01:15:21.541Z,79.22
2017-11-20T01:16:21.534Z,79.79
2017-11-20T01:17:21.531Z,79.79
2017-11-20T01:18:21.524Z,79.79
2017-11-20T01:19:21.516Z,80.26
2017-11-20T01:20:42.518Z,79.97
2017-11-20T01:21:21.505Z,79.60
2017-11-20T01:22:21.504Z,79.79
2017-11-20T01:23:21.491Z,79.88
2017-11-20T01:24:21.485Z,80.74
2017-11-20T01:25:21.479Z,80.26
2017-11-20T01:26:42.480Z,79.31
2017-11-20T01:27:21.468Z,80.07
2017-11-20T01:28:21.459Z,80.64
2017-11-20T01:29:21.456Z,80.45
2017-11-20T01:30:21.448Z,80.55
2017-11-20T01:31:21.443Z,80.55
2017-11-20T01:32:42.442Z,80.74
2017-11-20T01:33:21.434Z,80.55
2017-11-20T01:34:21.422Z,80.45
2017-11-20T01:35:21.417Z,81.40
2017-11-20T01:36:21.410Z,80.93
2017-11-20T01:37:21.406Z,80.74
2017-11-20T01:38:42.403Z,80.74
2017-11-20T01:39:21.390Z,80.93
2017-11-20T01:40:21.385Z,80.26
2017-11-20T01:41:21.379Z,80.83
2017-11-20T01:42:21.374Z,80.64
2017-11-20T01:43:21.366Z,80.45
2017-11-20T01:44:42.365Z,80.64
2017-11-20T01:45:21.356Z,79.88
2017-11-20T01:46:21.347Z,80.74
2017-11-20T01:47:21.343Z,80.64
2017-11-20T01:48:21.336Z,80.74
2017-11-20T01:49:21.340Z,80.74
2017-11-20T01:50:42.330Z,80.07
2017-11-20T01:51:21.316Z,79.97
2017-11-20T01:52:21.310Z,80.26
2017-11-20T01:53:21.305Z,80.26
2017-11-20T01:54:21.301Z,79.97
2017-11-20T01:55:21.290Z,79.97
2017-11-20T01:56:42.292Z,80.16
2017-11-20T01:57:21.279Z,79.79
2017-11-20T01:58:21.280Z,79.50
2017-11-20T01:59:21.266Z,79.22
2017-11-20T02:00:21.263Z,79.79
2017-11-20T02:01:21.260Z,79.79
2017-11-20T02:02:42.254Z,79.79
2017-11-20T02:03:21.241Z,79.41
2017-11-20T02:04:21.245Z,80.26
2017-11-20T02:05:21.229Z,80.16
2017-11-20T02:06:21.224Z,79.31
2017-11-20T02:07:21.216Z,79.79
2017-11-20T02:08:42.222Z,79.22
2017-11-20T02:09:21.206Z,79.31
2017-11-20T02:10:21.203Z,79.60
2017-11-20T02:11:21.191Z,79.88
2017-11-20T02:12:21.189Z,79.79
2017-11-20T02:13:21.183Z,79.88
2017-11-20T02:14:42.182Z,79.60
2017-11-20T02:15:21.168Z,79.79
2017-11-20T02:16:21.161Z,79.79
2017-11-20T02:17:21.157Z,79.60
2017-11-20T02:18:21.150Z,79.69
2017-11-20T02:19:21.144Z,78.93
2017-11-20T02:20:42.152Z,79.79
2017-11-20T02:21:21.525Z,80.55
2017-11-20T02:22:21.125Z,80.64
2017-11-20T02:23:21.120Z,80.45
2017-11-20T02:24:21.110Z,80.16
2017-11-20T02:25:21.106Z,80.07
2017-11-20T02:26:42.107Z,80.55
2017-11-20T02:27:21.095Z,80.64
2017-11-20T02:28:21.091Z,80.35
2017-11-20T02:29:21.080Z,80.07
2017-11-20T02:30:21.074Z,80.64
2017-11-20T02:31:21.070Z,79.97
2017-11-20T02:32:42.161Z,80.55
2017-11-20T02:33:21.055Z,80.26
2017-11-20T02:34:21.050Z,80.35
2017-11-20T02:35:21.045Z,80.64
2017-11-20T02:36:21.038Z,80.55
2017-11-20T02:37:21.033Z,80.55
2017-11-20T02:38:42.029Z,80.55
2017-11-20T02:39:21.017Z,80.45
2017-11-20T02:40:21.014Z,80.64
2017-11-20T02:41:21.007Z,80.83
2017-11-20T02:42:21.003Z,80.83
2017-11-20T02:43:20.992Z,80.45
2017-11-20T02:44:41.996Z,80.07
2017-11-20T02:45:20.983Z,80.64
2017-11-20T02:46:20.975Z,80.45
2017-11-20T02:47:20.966Z,80.64
2017-11-20T02:48:20.961Z,80.55
2017-11-20T02:49:20.956Z,80.45
2017-11-20T02:50:41.957Z,80.64
2017-11-20T02:51:20.962Z,80.93
2017-11-20T02:52:21.928Z,80.55
2017-11-20T02:53:20.932Z,80.55
2017-11-20T02:54:20.946Z,80.45
2017-11-20T02:55:20.917Z,80.35
2017-11-20T02:56:41.916Z,80.55
2017-11-20T02:57:20.904Z,80.93
2017-11-20T02:58:20.899Z,80.64
2017-11-20T02:59:20.898Z,80.74
2017-11-20T03:00:20.884Z,80.45
2017-11-20T03:01:20.883Z,80.74
2017-11-20T03:02:42.054Z,80.26
2017-11-20T03:03:20.869Z,80.45
2017-11-20T03:04:20.859Z,80.74
2017-11-20T03:05:20.853Z,80.55
2017-11-20T03:06:20.847Z,80.45
2017-11-20T03:07:20.840Z,80.55
2017-11-20T03:08:41.839Z,80.83
2017-11-20T03:09:20.827Z,80.55
2017-11-20T03:10:20.821Z,80.74
2017-11-20T03:11:20.816Z,80.64
2017-11-20T03:12:20.810Z,80.74
2017-11-20T03:13:20.802Z,80.93
2017-11-20T03:14:41.802Z,81.30
2017-11-20T03:15:20.788Z,80.64
2017-11-20T03:16:20.782Z,80.55
2017-11-20T03:17:20.776Z,81.40
2017-11-20T03:18:20.770Z,80.74
2017-11-20T03:19:20.762Z,81.21
2017-11-20T03:20:41.765Z,81.68
2017-11-20T03:21:20.753Z,81.12
2017-11-20T03:22:20.751Z,80.93
2017-11-20T03:23:20.735Z,81.02
2017-11-20T03:24:20.737Z,81.02
2017-11-20T03:25:20.726Z,81.68
2017-11-20T03:26:41.728Z,81.40
2017-11-20T03:27:20.711Z,81.02
2017-11-20T03:28:20.705Z,81.49
2017-11-20T03:29:20.705Z,81.59
2017-11-20T03:30:20.701Z,81.30
2017-11-20T03:31:20.688Z,80.93
2017-11-20T03:32:41.756Z,81.30
2017-11-20T03:33:20.677Z,81.21
2017-11-20T03:34:20.667Z,81.21
2017-11-20T03:35:20.664Z,81.68
2017-11-20T03:36:20.654Z,80.74
2017-11-20T03:37:20.647Z,81.59
2017-11-20T03:38:41.650Z,81.21
2017-11-20T03:39:20.637Z,80.74
2017-11-20T03:40:20.629Z,80.88
2017-11-20T03:41:20.620Z,81.12
2017-11-20T03:42:20.617Z,80.16
2017-11-20T03:43:20.609Z,80.74
2017-11-20T03:44:41.608Z,80.83
2017-11-20T03:45:20.597Z,80.69
2017-11-20T03:46:20.590Z,81.55
2017-11-20T03:47:20.581Z,81.65
2017-11-20T03:48:20.576Z,81.55
2017-11-20T03:49:20.569Z,81.21
2017-11-20T03:50:41.568Z,81.40
2017-11-20T03:51:20.560Z,81.59
2017-11-20T03:52:20.553Z,81.30
2017-11-20T03:53:20.686Z,81.12
2017-11-20T03:54:20.536Z,81.02
2017-11-20T03:55:20.530Z,81.78
2017-11-20T03:56:41.530Z,81.02
2017-11-20T03:57:20.519Z,81.45
2017-11-20T03:58:20.513Z,81.55
2017-11-20T03:59:20.505Z,80.60
2017-11-20T04:00:20.501Z,80.55
2017-11-20T04:01:20.492Z,81.36
2017-11-20T04:02:41.544Z,81.59
2017-11-20T04:03:20.478Z,81.12
2017-11-20T04:04:20.472Z,81.30
2017-11-20T04:05:20.467Z,81.30
2017-11-20T04:06:20.460Z,80.64
2017-11-20T04:07:20.454Z,80.55
2017-11-20T04:08:41.453Z,80.07
2017-11-20T04:09:20.443Z,80.45
2017-11-20T04:10:20.435Z,80.64
2017-11-20T04:11:20.429Z,80.60
2017-11-20T04:12:20.421Z,80.55
2017-11-20T04:13:20.416Z,80.51
2017-11-20T04:14:41.420Z,80.45
2017-11-20T04:15:20.402Z,80.55
2017-11-20T04:16:20.401Z,80.16
2017-11-20T04:17:20.389Z,80.60
2017-11-20T04:18:35.267Z,80.93
2017-11-20T04:19:20.375Z,80.64
2017-11-20T04:20:41.375Z,80.13
2017-11-20T04:21:20.365Z,80.22
2017-11-20T04:22:20.380Z,80.41
2017-11-20T04:23:20.350Z,80.51
2017-11-20T04:24:21.101Z,80.41
2017-11-20T04:25:20.338Z,80.69
2017-11-20T04:26:41.338Z,79.84
2017-11-20T04:27:20.324Z,80.13
2017-11-20T04:28:20.317Z,80.60
2017-11-20T04:29:20.311Z,80.79
2017-11-20T04:30:20.306Z,80.69
2017-11-20T04:31:20.301Z,79.94
2017-11-20T04:32:41.338Z,80.22
2017-11-20T04:33:20.287Z,80.22
2017-11-20T04:34:20.279Z,80.51
2017-11-20T04:35:20.271Z,80.69
2017-11-20T04:36:20.266Z,80.51
2017-11-20T04:37:20.259Z,80.74
2017-11-20T04:38:41.258Z,80.74
2017-11-20T04:39:20.249Z,80.74
2017-11-20T04:40:20.237Z,80.22
2017-11-20T04:41:20.235Z,80.16
2017-11-20T04:42:20.233Z,80.26
2017-11-20T04:43:20.224Z,80.16
2017-11-20T04:44:41.218Z,79.55
2017-11-20T04:45:20.899Z,79.41
2017-11-20T04:46:20.201Z,80.16
2017-11-20T04:47:20.194Z,80.35
2017-11-20T04:48:20.189Z,80.07
2017-11-20T04:49:20.182Z,80.83
2017-11-20T04:50:41.183Z,80.93
2017-11-20T04:51:20.168Z,80.55
2017-11-20T04:52:20.163Z,79.88
2017-11-20T04:53:20.157Z,79.97
2017-11-20T04:54:20.149Z,79.88
2017-11-20T04:55:20.145Z,80.64
2017-11-20T04:56:41.143Z,80.55
2017-11-20T04:57:20.137Z,80.64
2017-11-20T04:58:20.135Z,80.07
2017-11-20T04:59:20.119Z,80.55
2017-11-20T05:00:20.111Z,80.45
2017-11-20T05:01:20.108Z,81.59
2017-11-20T05:02:41.136Z,80.83
2017-11-20T05:03:20.094Z,80.45
2017-11-20T05:04:20.086Z,80.74
2017-11-20T05:05:20.081Z,80.83
2017-11-20T05:06:20.073Z,81.65
2017-11-20T05:07:20.066Z,80.79
2017-11-20T05:08:41.065Z,81.55
2017-11-20T05:09:20.055Z,81.07
2017-11-20T05:10:20.049Z,81.45
2017-11-20T05:11:20.040Z,80.98
2017-11-20T05:12:20.035Z,81.36
2017-11-20T05:13:20.028Z,80.98
2017-11-20T05:14:41.035Z,81.65
2017-11-20T05:15:20.017Z,81.07
2017-11-20T05:16:20.009Z,81.26
2017-11-20T05:17:20.002Z,81.26
2017-11-20T05:18:19.997Z,82.03
2017-11-20T05:19:19.989Z,81.45
2017-11-20T05:20:40.987Z,81.26
2017-11-20T05:21:19.976Z,81.93
2017-11-20T05:22:19.970Z,81.65
2017-11-20T05:23:19.964Z,81.74
2017-11-20T05:24:19.957Z,81.84
2017-11-20T05:25:19.950Z,81.55
2017-11-20T05:26:40.952Z,81.84
2017-11-20T05:27:19.934Z,82.40
2017-11-20T05:28:19.930Z,82.21
2017-11-20T05:29:19.922Z,82.40
2017-11-20T05:30:19.919Z,82.03
2017-11-20T05:31:19.911Z,81.45
2017-11-20T05:32:40.926Z,81.65
2017-11-20T05:33:19.899Z,81.07
2017-11-20T05:34:19.890Z,81.93
2017-11-20T05:35:19.885Z,81.93
2017-11-20T05:36:19.876Z,81.26
2017-11-20T05:37:19.872Z,81.26
2017-11-20T05:38:40.870Z,81.74
2017-11-20T05:39:19.869Z,81.45
2017-11-20T05:40:19.922Z,81.17
2017-11-20T05:41:19.846Z,80.79
2017-11-20T05:42:19.858Z,81.36
2017-11-20T05:43:19.832Z,81.55
2017-11-20T05:44:40.833Z,81.55
2017-11-20T05:45:19.821Z,81.84
2017-11-20T05:46:19.815Z,81.36
2017-11-20T05:47:19.805Z,81.17
2017-11-20T05:48:19.799Z,81.26
2017-11-20T05:49:19.798Z,81.93
2017-11-20T05:50:40.794Z,81.07
2017-11-20T05:51:19.780Z,81.55
2017-11-20T05:52:19.779Z,81.74
2017-11-20T05:53:19.767Z,81.55
2017-11-20T05:54:19.761Z,81.93
2017-11-20T05:55:19.753Z,81.65
2017-11-20T05:56:40.754Z,81.84
2017-11-20T05:57:19.741Z,81.84
2017-11-20T05:58:19.734Z,82.31
2017-11-20T05:59:19.729Z,81.45
2017-11-20T06:00:19.720Z,82.03
2017-11-20T06:01:19.714Z,82.12
2017-11-20T06:02:40.825Z,82.03
2017-11-20T06:03:19.705Z,82.31
2017-11-20T06:04:19.693Z,82.03
2017-11-20T06:05:19.690Z,82.03
2017-11-20T06:06:19.682Z,82.12
2017-11-20T06:07:19.677Z,81.93
2017-11-20T06:08:40.675Z,82.31
2017-11-20T06:09:19.662Z,82.69
2017-11-20T06:10:19.660Z,82.59
2017-11-20T06:11:19.645Z,82.31
2017-11-20T06:12:19.643Z,82.31
2017-11-20T06:13:19.639Z,82.31
2017-11-20T06:14:40.634Z,82.40
2017-11-20T06:15:19.625Z,82.59
2017-11-20T06:16:19.615Z,82.31
2017-11-20T06:17:19.607Z,82.69
2017-11-20T06:18:19.602Z,82.59
2017-11-20T06:19:19.594Z,82.31
2017-11-20T06:20:40.593Z,82.59
2017-11-20T06:21:19.586Z,82.40
2017-11-20T06:22:19.576Z,82.59
2017-11-20T06:23:19.569Z,82.50
2017-11-20T06:24:19.563Z,82.03
2017-11-20T06:25:19.556Z,82.50
2017-11-20T06:26:40.554Z,82.59
2017-11-20T06:27:19.540Z,82.59
2017-11-20T06:28:19.543Z,83.26
2017-11-20T06:29:19.537Z,82.88
2017-11-20T06:30:19.564Z,83.07
2017-11-20T06:31:19.516Z,82.50
2017-11-20T06:32:40.619Z,82.97
2017-11-20T06:33:19.500Z,82.59
2017-11-20T06:34:19.495Z,82.31
2017-11-20T06:35:19.500Z,82.31
2017-11-20T06:36:19.485Z,82.31
2017-11-20T06:37:19.475Z,82.12
2017-11-20T06:38:40.745Z,82.21
2017-11-20T06:39:19.469Z,82.40
2017-11-20T06:40:19.454Z,82.50
2017-11-20T06:41:19.458Z,82.78
2017-11-20T06:42:19.448Z,82.40
2017-11-20T06:43:19.435Z,82.50
2017-11-20T06:44:40.439Z,82.40
2017-11-20T06:45:19.423Z,82.50
2017-11-20T06:46:19.418Z,83.36
2017-11-20T06:47:19.414Z,83.07
2017-11-20T06:48:19.405Z,82.69
2017-11-20T06:49:19.399Z,82.40
2017-11-20T06:50:40.397Z,83.26
2017-11-20T06:51:19.815Z,83.16
2017-11-20T06:52:19.896Z,82.59
2017-11-20T06:53:19.369Z,82.40
2017-11-20T06:54:19.486Z,82.31
2017-11-20T06:55:19.356Z,82.50
2017-11-20T06:56:40.356Z,82.35
2017-11-20T06:57:19.345Z,82.59
2017-11-20T06:58:19.337Z,82.26
2017-11-20T06:59:19.331Z,82.26
2017-11-20T07:00:19.324Z,82.16
2017-11-20T07:01:19.318Z,82.16
2017-11-20T07:02:40.966Z,82.07
2017-11-20T07:03:19.302Z,82.16
2017-11-20T07:04:19.298Z,81.68
2017-11-20T07:05:19.292Z,81.87
2017-11-20T07:06:19.285Z,81.78
2017-11-20T07:07:19.277Z,81.87
2017-11-20T07:08:41.280Z,81.87
2017-11-20T07:09:19.269Z,81.68
2017-11-20T07:10:19.261Z,81.68
2017-11-20T07:11:19.253Z,81.78
2017-11-20T07:12:19.246Z,81.97
2017-11-20T07:13:19.238Z,81.12
2017-11-20T07:14:40.239Z,81.30
2017-11-20T07:15:19.226Z,81.21
2017-11-20T07:16:19.222Z,81.40
2017-11-20T07:17:19.219Z,81.02
2017-11-20T07:18:19.214Z,81.68
2017-11-20T07:19:19.203Z,81.68
2017-11-20T07:20:40.214Z,81.40
2017-11-20T07:21:19.190Z,81.21
2017-11-20T07:22:19.183Z,81.40
2017-11-20T07:23:19.184Z,81.40
2017-11-20T07:24:19.170Z,81.12
2017-11-20T07:25:19.165Z,81.40
2017-11-20T07:26:40.170Z,81.49
2017-11-20T07:27:19.152Z,81.30
2017-11-20T07:28:19.615Z,81.21
2017-11-20T07:29:19.141Z,81.40
2017-11-20T07:30:19.137Z,81.68
2017-11-20T07:31:19.127Z,81.78
2017-11-20T07:32:40.213Z,81.78
2017-11-20T07:33:19.115Z,81.30
2017-11-20T07:34:19.178Z,81.68
2017-11-20T07:35:19.704Z,81.59
2017-11-20T07:36:19.498Z,81.21
2017-11-20T07:37:19.092Z,81.12
2017-11-20T07:38:40.092Z,80.64
2017-11-20T07:39:19.083Z,81.40
2017-11-20T07:40:19.069Z,80.64
2017-11-20T07:41:19.120Z,80.83
2017-11-20T07:42:19.060Z,80.74
2017-11-20T07:43:19.706Z,80.83
2017-11-20T07:44:40.086Z,80.16
2017-11-20T07:45:19.044Z,80.83
2017-11-20T07:46:19.071Z,80.64
2017-11-20T07:47:19.026Z,81.21
2017-11-20T07:48:19.019Z,80.83
2017-11-20T07:49:19.015Z,81.02
2017-11-20T07:50:40.019Z,81.59
2017-11-20T07:51:19.006Z,81.21
2017-11-20T07:52:18.993Z,80.93
2017-11-20T07:53:18.989Z,80.64
2017-11-20T07:54:18.991Z,81.40
2017-11-20T07:55:18.980Z,81.12
2017-11-20T07:56:39.978Z,81.30
2017-11-20T07:57:18.969Z,81.40
2017-11-20T07:58:18.970Z,81.40
2017-11-20T07:59:19.954Z,80.83
2017-11-20T08:00:18.946Z,80.64
2017-11-20T08:01:18.939Z,80.64
2017-11-20T08:02:40.004Z,80.64
2017-11-20T08:03:18.930Z,80.74
2017-11-20T08:04:18.921Z,80.83
2017-11-20T08:05:18.917Z,80.16
2017-11-20T08:06:18.906Z,80.74
2017-11-20T08:07:18.918Z,80.45
2017-11-20T08:08:39.910Z,80.74
2017-11-20T08:09:18.888Z,80.74
2017-11-20T08:10:18.883Z,81.02
2017-11-20T08:11:18.880Z,81.21
2017-11-20T08:12:18.874Z,81.02
2017-11-20T08:13:18.865Z,80.55
2017-11-20T08:14:39.866Z,80.45
2017-11-20T08:15:18.856Z,80.45
2017-11-20T08:16:18.848Z,80.64
2017-11-20T08:17:18.850Z,80.55
2017-11-20T08:18:18.837Z,80.35
2017-11-20T08:19:18.827Z,81.02
2017-11-20T08:20:39.828Z,81.02
2017-11-20T08:21:18.819Z,81.49
2017-11-20T08:22:18.809Z,81.49
2017-11-20T08:23:18.804Z,81.59
2017-11-20T08:24:18.797Z,81.12
2017-11-20T08:25:18.795Z,81.40
2017-11-20T08:26:39.792Z,81.78
2017-11-20T08:27:18.779Z,81.02
2017-11-20T08:28:18.792Z,81.40
2017-11-20T08:29:18.765Z,81.30
2017-11-20T08:30:18.763Z,81.59
2017-11-20T08:31:18.756Z,80.87
2017-11-20T08:32:39.812Z,82.29
2017-11-20T08:33:18.745Z,80.58
2017-11-20T08:34:18.736Z,80.21
2017-11-20T08:35:18.728Z,79.83
2017-11-20T08:36:18.725Z,79.25
2017-11-20T08:37:18.718Z,79.92
2017-11-20T08:38:39.719Z,79.25
2017-11-20T08:39:18.705Z,78.97
2017-11-20T08:40:18.698Z,78.97
2017-11-20T08:41:18.703Z,79.35
2017-11-20T08:42:18.698Z,79.16
2017-11-20T08:43:18.684Z,79.35
2017-11-20T08:44:39.704Z,79.25
2017-11-20T08:45:18.678Z,79.25
2017-11-20T08:46:18.670Z,79.25
2017-11-20T08:47:18.667Z,79.25
2017-11-20T08:48:18.652Z,79.06
2017-11-20T08:49:18.651Z,78.88
2017-11-20T08:50:39.646Z,78.97
2017-11-20T08:51:18.637Z,78.69
2017-11-20T08:52:18.747Z,78.88
2017-11-20T08:53:18.633Z,78.69
2017-11-20T08:54:18.618Z,78.88
2017-11-20T08:55:18.631Z,78.88
2017-11-20T08:56:39.616Z,78.11
2017-11-20T08:57:18.603Z,78.30
2017-11-20T08:58:18.593Z,77.55
2017-11-20T08:59:18.588Z,77.92
2017-11-20T09:00:18.760Z,77.45
2017-11-20T09:01:20.984Z,77.73
2017-11-20T09:02:39.619Z,77.55
2017-11-20T09:03:18.565Z,77.92
2017-11-20T09:04:18.561Z,77.83
2017-11-20T09:05:18.590Z,77.30
2017-11-20T09:06:18.682Z,77.20
2017-11-20T09:07:18.544Z,77.01
2017-11-20T09:08:39.545Z,77.39
2017-11-20T09:09:18.529Z,77.58
2017-11-20T09:10:18.620Z,77.68
2017-11-20T09:11:18.521Z,77.49
2017-11-20T09:12:18.519Z,77.49
2017-11-20T09:13:18.522Z,77.58
2017-11-20T09:14:39.513Z,77.20
2017-11-20T09:15:18.530Z,76.44
2017-11-20T09:16:18.493Z,76.54
2017-11-20T09:17:18.489Z,76.44
2017-11-20T09:18:18.499Z,76.35
2017-11-20T09:19:18.484Z,76.25
2017-11-20T09:20:39.481Z,76.35
2017-11-20T09:21:18.481Z,76.35
2017-11-20T09:22:18.590Z,76.54
2017-11-20T09:23:18.458Z,76.25
2017-11-20T09:24:18.481Z,76.35
2017-11-20T09:25:18.445Z,76.54
2017-11-20T09:26:39.452Z,76.54
2017-11-20T09:27:18.444Z,76.16
2017-11-20T09:28:18.428Z,76.35
2017-11-20T09:29:18.449Z,76.54
2017-11-20T09:30:18.418Z,76.54
2017-11-20T09:31:19.159Z,76.16
2017-11-20T09:32:39.562Z,76.06
2017-11-20T09:33:18.406Z,76.16
2017-11-20T09:34:18.397Z,76.35
2017-11-20T09:35:18.396Z,76.16
2017-11-20T09:36:18.387Z,75.87
2017-11-20T09:37:18.382Z,75.87
2017-11-20T09:38:39.408Z,76.25
2017-11-20T09:39:18.368Z,76.06
2017-11-20T09:40:18.362Z,76.06
2017-11-20T09:41:18.358Z,75.96
2017-11-20T09:42:18.356Z,76.06
2017-11-20T09:43:18.348Z,75.96
2017-11-20T09:44:39.369Z,75.78
2017-11-20T09:45:18.336Z,76.06
2017-11-20T09:46:18.340Z,75.78
2017-11-20T09:47:18.325Z,75.68
2017-11-20T09:48:18.323Z,75.59
2017-11-20T09:49:18.313Z,75.68
2017-11-20T09:50:39.319Z,75.96
2017-11-20T09:51:18.306Z,75.49
2017-11-20T09:52:18.297Z,75.11
2017-11-20T09:53:18.293Z,75.68
2017-11-20T09:54:18.295Z,75.30
2017-11-20T09:55:18.315Z,75.30
2017-11-20T09:56:39.284Z,76.06
2017-11-20T09:57:18.280Z,75.59
2017-11-20T09:58:18.271Z,75.21
2017-11-20T09:59:19.199Z,75.02
2017-11-20T10:00:18.259Z,74.92
2017-11-20T10:01:18.268Z,74.63
2017-11-20T10:02:39.312Z,74.82
2017-11-20T10:03:18.277Z,75.02
2017-11-20T10:04:18.234Z,75.02
2017-11-20T10:05:18.245Z,75.40
2017-11-20T10:06:18.234Z,74.44
2017-11-20T10:07:18.268Z,74.35
2017-11-20T10:08:39.252Z,74.26
2017-11-20T10:09:18.211Z,74.82
2017-11-20T10:10:18.203Z,74.73
2017-11-20T10:11:18.216Z,74.73
2017-11-20T10:12:18.201Z,74.26
2017-11-20T10:13:18.206Z,74.82
2017-11-20T10:14:39.189Z,74.26
2017-11-20T10:15:18.176Z,74.54
2017-11-20T10:16:18.191Z,74.44
2017-11-20T10:17:18.174Z,74.44
2017-11-20T10:18:18.197Z,73.88
2017-11-20T10:19:18.156Z,74.63
2017-11-20T10:20:39.158Z,73.88
2017-11-20T10:21:18.208Z,73.88
2017-11-20T10:22:18.185Z,73.69
2017-11-20T10:23:18.184Z,73.69
2017-11-20T10:24:18.128Z,74.73
2017-11-20T10:25:18.132Z,74.63
2017-11-20T10:26:39.123Z,74.35
2017-11-20T10:27:18.147Z,74.63
2017-11-20T10:28:18.217Z,74.63
2017-11-20T10:29:18.107Z,74.44
2017-11-20T10:30:18.105Z,74.26
2017-11-20T10:31:18.094Z,74.44
2017-11-20T10:32:39.106Z,74.44
2017-11-20T10:33:18.120Z,74.16
2017-11-20T10:34:18.104Z,74.16
2017-11-20T10:35:18.161Z,74.26
2017-11-20T10:36:18.089Z,74.26
2017-11-20T10:37:18.069Z,74.26
2017-11-20T10:38:39.068Z,73.78
2017-11-20T10:39:18.063Z,73.78
2017-11-20T10:40:18.063Z,73.59
2017-11-20T10:41:18.095Z,73.59
2017-11-20T10:42:18.059Z,73.69
2017-11-20T10:43:18.035Z,73.69
2017-11-20T10:44:39.052Z,73.69
2017-11-20T10:45:18.024Z,73.21
2017-11-20T10:46:18.018Z,73.78
2017-11-20T10:47:18.008Z,72.92
2017-11-20T10:48:18.036Z,73.02
2017-11-20T10:49:18.120Z,73.21
2017-11-20T10:50:39.010Z,73.11
2017-11-20T10:51:17.993Z,73.11
2017-11-20T10:52:18.041Z,73.11
2017-11-20T10:53:17.974Z,72.92
2017-11-20T10:54:17.980Z,73.11
2017-11-20T10:55:17.972Z,73.11
2017-11-20T10:56:38.977Z,72.92
2017-11-20T10:57:17.970Z,72.92
2017-11-20T10:58:17.948Z,72.35
2017-11-20T10:59:17.985Z,71.50
2017-11-20T11:00:17.938Z,71.78
2017-11-20T11:01:17.976Z,72.16
2017-11-20T11:02:38.969Z,71.59
2017-11-20T11:03:18.549Z,71.31
2017-11-20T11:04:17.931Z,71.88
2017-11-20T11:05:17.919Z,71.97
2017-11-20T11:06:17.949Z,71.50
2017-11-20T11:07:18.044Z,71.97
2017-11-20T11:08:38.922Z,71.88
2017-11-20T11:09:18.042Z,71.59
2017-11-20T11:10:17.896Z,71.02
2017-11-20T11:11:18.158Z,70.83
2017-11-20T11:12:17.983Z,71.41
2017-11-20T11:13:18.056Z,70.83
2017-11-20T11:14:38.891Z,71.50
2017-11-20T11:15:17.864Z,71.12
2017-11-20T11:16:17.857Z,71.12
2017-11-20T11:17:17.863Z,71.02
2017-11-20T11:18:17.850Z,71.31
2017-11-20T11:19:17.838Z,70.93
2017-11-20T11:20:42.824Z,71.22
2017-11-20T11:21:17.930Z,71.31
2017-11-20T11:22:17.834Z,71.12
2017-11-20T11:23:17.826Z,70.83
2017-11-20T11:24:17.809Z,70.45
2017-11-20T11:25:17.818Z,69.98
2017-11-20T11:26:38.806Z,70.45
2017-11-20T11:27:17.800Z,70.54
2017-11-20T11:28:17.797Z,70.45
2017-11-20T11:29:17.789Z,70.45
2017-11-20T11:30:17.781Z,70.45
2017-11-20T11:31:17.804Z,70.36
2017-11-20T11:32:38.797Z,70.26
2017-11-20T11:33:17.765Z,70.45
2017-11-20T11:34:17.759Z,70.54
2017-11-20T11:35:17.761Z,70.36
2017-11-20T11:36:17.758Z,70.83
2017-11-20T11:37:17.745Z,70.83
2017-11-20T11:38:38.749Z,70.93
2017-11-20T11:39:18.173Z,71.12
2017-11-20T11:40:17.729Z,71.02
2017-11-20T11:41:17.720Z,71.12
2017-11-20T11:42:17.772Z,70.64
2017-11-20T11:43:17.723Z,71.02
2017-11-20T11:44:39.117Z,71.02
2017-11-20T11:45:17.701Z,71.22
2017-11-20T11:46:17.695Z,70.93
2017-11-20T11:47:17.689Z,71.31
2017-11-20T11:48:17.693Z,70.54
2017-11-20T11:49:17.792Z,70.45
2017-11-20T11:50:38.680Z,70.36
2017-11-20T11:51:17.670Z,70.36
2017-11-20T11:52:17.771Z,71.12
2017-11-20T11:53:17.678Z,70.83
2017-11-20T11:54:17.764Z,71.22
2017-11-20T11:55:17.797Z,71.59
2017-11-20T11:56:38.646Z,72.64
2017-11-20T11:57:17.642Z,72.92
2017-11-20T11:58:17.630Z,73.40
2017-11-20T11:59:18.312Z,73.84
2017-11-20T12:00:17.617Z,74.41
2017-11-20T12:01:17.613Z,74.69
2017-11-20T12:02:38.731Z,74.88
2017-11-20T12:03:17.779Z,75.07
2017-11-20T12:04:17.602Z,74.79
2017-11-20T12:05:17.748Z,74.98
2017-11-20T12:06:17.585Z,74.12
2017-11-20T12:07:17.581Z,74.69
2017-11-20T12:08:38.581Z,74.41
2017-11-20T12:09:17.570Z,75.07
2017-11-20T12:10:17.567Z,75.26
2017-11-20T12:11:17.557Z,75.07
2017-11-20T12:12:17.552Z,74.69
2017-11-20T12:13:17.553Z,75.07
2017-11-20T12:14:38.552Z,74.79
2017-11-20T12:15:17.534Z,75.55
2017-11-20T12:16:17.534Z,76.21
2017-11-20T12:17:17.657Z,75.93
2017-11-20T12:18:17.520Z,75.84
2017-11-20T12:19:17.511Z,75.93
2017-11-20T12:20:38.513Z,76.21
2017-11-20T12:21:17.508Z,76.97
2017-11-20T12:22:17.493Z,77.17
2017-11-20T12:23:17.488Z,77.36
2017-11-20T12:24:17.492Z,77.17
2017-11-20T12:25:17.485Z,77.83
2017-11-20T12:26:38.488Z,77.64
2017-11-20T12:27:17.469Z,78.21
2017-11-20T12:28:17.460Z,77.83
2017-11-20T12:29:17.468Z,78.11
2017-11-20T12:30:17.448Z,77.45
2017-11-20T12:31:17.509Z,76.97
2017-11-20T12:32:38.485Z,76.97
2017-11-20T12:33:19.771Z,76.97
2017-11-20T12:34:17.846Z,76.65
2017-11-20T12:35:17.840Z,77.03
2017-11-20T12:36:17.416Z,77.41
2017-11-20T12:37:17.414Z,77.89
2017-11-20T12:38:38.412Z,78.45
2017-11-20T12:39:17.394Z,78.17
2017-11-20T12:40:17.667Z,78.55
2017-11-20T12:41:17.384Z,78.27
2017-11-20T12:42:17.377Z,78.30
2017-11-20T12:43:17.371Z,78.59
2017-11-20T12:44:38.375Z,78.36
2017-11-20T12:45:17.360Z,78.21
2017-11-20T12:46:17.356Z,78.02
2017-11-20T12:47:17.349Z,78.02
2017-11-20T12:48:17.342Z,78.30
2017-11-20T12:49:17.338Z,78.93
2017-11-20T12:50:38.350Z,78.21
2017-11-20T12:51:17.325Z,78.50
2017-11-20T12:52:17.395Z,78.97